sensor_id;sensor_type;location;lat;lon;timestamp;pressure;altitude;pressure_sealevel;temperature;humidity
55590;BME280;41452;42.780;23.116;2022-09-09T00:01:11;94614.34;;;14.88;90.62
55590;BME280;41452;42.780;23.116;2022-09-09T00:03:54;94540.88;;;14.40;90.44
55590;BME280;41452;42.780;23.116;2022-09-09T00:06:31;94566.19;;;14.58;90.41
55590;BME280;41452;42.780;23.116;2022-09-09T00:09:15;94605.34;;;14.89;90.72
55590;BME280;41452;42.780;23.116;2022-09-09T00:12:14;94600.03;;;14.89;90.60
55590;BME280;41452;42.780;23.116;2022-09-09T00:15:18;94585.50;;;14.86;90.50
55590;BME280;41452;42.780;23.116;2022-09-09T00:17:56;94592.09;;;14.83;90.31
55590;BME280;41452;42.780;23.116;2022-09-09T00:20:39;94569.03;;;14.52;90.68
55590;BME280;41452;42.780;23.116;2022-09-09T00:23:25;94574.31;;;14.52;90.60
55590;BME280;41452;42.780;23.116;2022-09-09T00:26:18;94577.97;;;14.51;91.10
55590;BME280;41452;42.780;23.116;2022-09-09T00:28:52;94556.84;;;14.23;91.58
55590;BME280;41452;42.780;23.116;2022-09-09T00:31:26;94579.66;;;14.35;91.73
55590;BME280;41452;42.780;23.116;2022-09-09T00:33:53;94576.66;;;14.26;92.57
55590;BME280;41452;42.780;23.116;2022-09-09T00:36:23;94512.22;;;13.78;92.75
55590;BME280;41452;42.780;23.116;2022-09-09T00:38:59;94570.28;;;14.22;92.92
55590;BME280;41452;42.780;23.116;2022-09-09T00:51:50;94582.84;;;14.37;92.02
55590;BME280;41452;42.780;23.116;2022-09-09T00:54:35;94588.13;;;14.37;92.12
55590;BME280;41452;42.780;23.116;2022-09-09T01:00:15;94545.97;;;14.20;91.85
55590;BME280;41452;42.780;23.116;2022-09-09T01:05:26;94466.66;;;13.65;91.44
55590;BME280;41452;42.780;23.116;2022-09-09T01:07:57;94581.88;;;14.43;91.37
55590;BME280;41452;42.780;23.116;2022-09-09T01:10:41;94492.78;;;13.89;91.35
55590;BME280;41452;42.780;23.116;2022-09-09T01:13:16;94543.22;;;14.10;91.21
55590;BME280;41452;42.780;23.116;2022-09-09T01:15:46;94544.31;;;14.14;91.29
55590;BME280;41452;42.780;23.116;2022-09-09T01:18:17;94579.97;;;14.38;90.91
55590;BME280;41452;42.780;23.116;2022-09-09T01:21:09;94575.09;;;14.25;91.03
55590;BME280;41452;42.780;23.116;2022-09-09T01:29:13;94442.94;;;13.26;91.80
55590;BME280;41452;42.780;23.116;2022-09-09T01:32:02;94572.97;;;14.05;91.83
55590;BME280;41452;42.780;23.116;2022-09-09T01:34:32;94593.81;;;14.23;91.55
55590;BME280;41452;42.780;23.116;2022-09-09T01:37:10;94559.72;;;14.00;91.61
55590;BME280;41452;42.780;23.116;2022-09-09T01:39:38;94597.00;;;14.25;91.65
55590;BME280;41452;42.780;23.116;2022-09-09T01:42:06;94601.81;;;14.29;91.30
55590;BME280;41452;42.780;23.116;2022-09-09T01:44:34;94580.72;;;14.12;91.03
55590;BME280;41452;42.780;23.116;2022-09-09T01:47:01;94555.75;;;13.97;91.32
55590;BME280;41452;42.780;23.116;2022-09-09T01:49:26;94552.13;;;14.03;90.90
55590;BME280;41452;42.780;23.116;2022-09-09T01:51:53;94583.44;;;14.17;91.18
55590;BME280;41452;42.780;23.116;2022-09-09T01:54:22;94483.28;;;13.44;91.03
55590;BME280;41452;42.780;23.116;2022-09-09T02:04:59;94579.00;;;14.22;90.75
55590;BME280;41452;42.780;23.116;2022-09-09T02:07:47;94574.47;;;14.18;90.62
55590;BME280;41452;42.780;23.116;2022-09-09T02:10:33;94583.81;;;14.03;90.91
55590;BME280;41452;42.780;23.116;2022-09-09T02:13:08;94577.78;;;13.86;91.26
55590;BME280;41452;42.780;23.116;2022-09-09T02:15:52;94584.22;;;13.95;91.62
55590;BME280;41452;42.780;23.116;2022-09-09T02:18:26;94527.28;;;13.60;91.75
55590;BME280;41452;42.780;23.116;2022-09-09T02:20:53;94589.56;;;14.00;91.68
55590;BME280;41452;42.780;23.116;2022-09-09T02:25:49;94587.13;;;13.94;91.47
55590;BME280;41452;42.780;23.116;2022-09-09T02:28:17;94594.69;;;14.07;91.57
55590;BME280;41452;42.780;23.116;2022-09-09T02:30:45;94522.00;;;13.60;91.33
55590;BME280;41452;42.780;23.116;2022-09-09T02:33:13;94559.41;;;13.74;91.24
55590;BME280;41452;42.780;23.116;2022-09-09T02:35:40;94574.84;;;13.82;91.23
55590;BME280;41452;42.780;23.116;2022-09-09T02:38:10;94585.63;;;14.03;91.47
55590;BME280;41452;42.780;23.116;2022-09-09T02:40:37;94573.06;;;13.88;91.15
55590;BME280;41452;42.780;23.116;2022-09-09T02:43:03;94557.06;;;13.78;90.93
55590;BME280;41452;42.780;23.116;2022-09-09T02:46:52;94604.97;;;14.08;91.09
55590;BME280;41452;42.780;23.116;2022-09-09T02:54:31;94593.31;;;14.04;91.04
55590;BME280;41452;42.780;23.116;2022-09-09T02:59:27;94557.56;;;13.75;90.87
55590;BME280;41452;42.780;23.116;2022-09-09T03:01:52;94550.69;;;13.74;90.85
55590;BME280;41452;42.780;23.116;2022-09-09T03:04:18;94531.63;;;13.49;90.83
55590;BME280;41452;42.780;23.116;2022-09-09T03:06:44;94592.63;;;13.92;91.10
55590;BME280;41452;42.780;23.116;2022-09-09T03:09:09;94591.06;;;13.91;91.15
55590;BME280;41452;42.780;23.116;2022-09-09T03:11:36;94470.94;;;13.10;91.19
55590;BME280;41452;42.780;23.116;2022-09-09T03:14:04;94592.88;;;13.91;91.31
55590;BME280;41452;42.780;23.116;2022-09-09T03:16:29;94591.53;;;13.88;91.72
55590;BME280;41452;42.780;23.116;2022-09-09T03:18:55;94540.25;;;13.62;91.63
55590;BME280;41452;42.780;23.116;2022-09-09T03:21:20;94593.63;;;13.86;91.93
55590;BME280;41452;42.780;23.116;2022-09-09T03:23:46;94577.97;;;13.79;91.79
55590;BME280;41452;42.780;23.116;2022-09-09T03:26:12;94560.41;;;13.68;91.93
55590;BME280;41452;42.780;23.116;2022-09-09T03:28:39;94545.84;;;13.65;92.32
55590;BME280;41452;42.780;23.116;2022-09-09T03:31:05;94553.13;;;13.58;92.01
55590;BME280;41452;42.780;23.116;2022-09-09T03:33:31;94586.41;;;13.59;92.62
55590;BME280;41452;42.780;23.116;2022-09-09T03:35:57;94529.53;;;12.96;93.52
55590;BME280;41452;42.780;23.116;2022-09-09T03:38:25;94562.28;;;13.17;93.97
55590;BME280;41452;42.780;23.116;2022-09-09T03:40:52;94565.97;;;13.33;94.08
55590;BME280;41452;42.780;23.116;2022-09-09T03:43:21;94547.97;;;13.29;93.66
55590;BME280;41452;42.780;23.116;2022-09-09T03:45:47;94596.53;;;13.67;93.56
55590;BME280;41452;42.780;23.116;2022-09-09T03:48:13;94545.13;;;13.31;93.20
55590;BME280;41452;42.780;23.116;2022-09-09T03:50:39;94590.69;;;13.65;93.08
55590;BME280;41452;42.780;23.116;2022-09-09T03:53:04;94589.16;;;13.69;93.06
55590;BME280;41452;42.780;23.116;2022-09-09T03:55:31;94590.78;;;13.71;93.00
55590;BME280;41452;42.780;23.116;2022-09-09T03:57:57;94496.53;;;13.10;92.82
55590;BME280;41452;42.780;23.116;2022-09-09T04:00:23;94494.34;;;13.07;92.81
55590;BME280;41452;42.780;23.116;2022-09-09T04:02:48;94494.28;;;13.02;92.94
55590;BME280;41452;42.780;23.116;2022-09-09T04:05:14;94540.94;;;13.35;92.73
55590;BME280;41452;42.780;23.116;2022-09-09T04:07:40;94530.72;;;13.22;92.65
55590;BME280;41452;42.780;23.116;2022-09-09T04:10:06;94556.53;;;13.37;93.12
55590;BME280;41452;42.780;23.116;2022-09-09T04:12:33;94592.53;;;13.65;93.39
55590;BME280;41452;42.780;23.116;2022-09-09T04:14:59;94549.66;;;13.36;93.54
55590;BME280;41452;42.780;23.116;2022-09-09T04:17:25;94496.44;;;13.05;93.51
55590;BME280;41452;42.780;23.116;2022-09-09T04:19:51;94549.19;;;13.22;93.69
55590;BME280;41452;42.780;23.116;2022-09-09T04:22:16;94594.25;;;13.54;93.93
55590;BME280;41452;42.780;23.116;2022-09-09T04:24:42;94489.91;;;12.90;94.16
55590;BME280;41452;42.780;23.116;2022-09-09T04:27:07;94544.88;;;13.33;94.50
55590;BME280;41452;42.780;23.116;2022-09-09T04:29:32;94553.41;;;13.40;94.66
55590;BME280;41452;42.780;23.116;2022-09-09T04:34:36;94584.25;;;13.39;95.42
55590;BME280;41452;42.780;23.116;2022-09-09T04:37:01;94602.72;;;13.56;95.89
55590;BME280;41452;42.780;23.116;2022-09-09T04:39:26;94595.44;;;13.63;96.39
55590;BME280;41452;42.780;23.116;2022-09-09T04:41:52;94552.13;;;13.42;96.66
55590;BME280;41452;42.780;23.116;2022-09-09T04:44:18;94558.25;;;13.48;96.73
55590;BME280;41452;42.780;23.116;2022-09-09T04:46:43;94511.69;;;13.20;97.10
55590;BME280;41452;42.780;23.116;2022-09-09T04:49:10;94564.28;;;13.43;98.04
55590;BME280;41452;42.780;23.116;2022-09-09T04:51:35;94524.31;;;13.35;98.87
55590;BME280;41452;42.780;23.116;2022-09-09T04:54:00;94538.16;;;13.42;99.18
55590;BME280;41452;42.780;23.116;2022-09-09T04:56:26;94591.22;;;13.84;99.35
55590;BME280;41452;42.780;23.116;2022-09-09T04:58:54;94555.00;;;13.80;99.93
55590;BME280;41452;42.780;23.116;2022-09-09T05:01:21;94572.75;;;14.06;100.00
55590;BME280;41452;42.780;23.116;2022-09-09T05:03:47;94584.44;;;14.11;100.00
55590;BME280;41452;42.780;23.116;2022-09-09T05:06:14;94588.78;;;14.22;100.00
55590;BME280;41452;42.780;23.116;2022-09-09T05:08:41;94591.78;;;14.31;100.00
55590;BME280;41452;42.780;23.116;2022-09-09T05:11:18;94519.25;;;13.94;100.00
55590;BME280;41452;42.780;23.116;2022-09-09T05:13:45;94583.50;;;14.49;100.00
55590;BME280;41452;42.780;23.116;2022-09-09T05:16:11;94556.25;;;14.43;100.00
55590;BME280;41452;42.780;23.116;2022-09-09T05:18:38;94527.53;;;14.25;100.00
55590;BME280;41452;42.780;23.116;2022-09-09T05:21:04;94568.66;;;14.65;100.00
55590;BME280;41452;42.780;23.116;2022-09-09T05:23:29;94588.09;;;14.81;100.00
55590;BME280;41452;42.780;23.116;2022-09-09T05:25:58;94608.56;;;14.91;100.00
55590;BME280;41452;42.780;23.116;2022-09-09T05:28:24;94597.25;;;15.00;100.00
55590;BME280;41452;42.780;23.116;2022-09-09T05:30:58;94590.75;;;15.13;100.00
55590;BME280;41452;42.780;23.116;2022-09-09T05:33:25;94585.53;;;15.24;100.00
55590;BME280;41452;42.780;23.116;2022-09-09T05:36:02;94589.53;;;15.26;100.00
55590;BME280;41452;42.780;23.116;2022-09-09T05:38:28;94545.16;;;15.01;100.00
55590;BME280;41452;42.780;23.116;2022-09-09T05:40:54;94561.97;;;15.22;99.93
55590;BME280;41452;42.780;23.116;2022-09-09T05:43:21;94554.38;;;15.31;98.75
55590;BME280;41452;42.780;23.116;2022-09-09T05:45:47;94585.56;;;15.66;97.18
55590;BME280;41452;42.780;23.116;2022-09-09T05:48:16;94542.28;;;15.45;97.31
55590;BME280;41452;42.780;23.116;2022-09-09T05:50:42;94563.09;;;15.74;95.25
55590;BME280;41452;42.780;23.116;2022-09-09T05:53:08;94592.16;;;16.01;96.14
55590;BME280;41452;42.780;23.116;2022-09-09T05:55:35;94555.22;;;15.79;96.59
55590;BME280;41452;42.780;23.116;2022-09-09T05:58:00;94472.06;;;15.27;95.64
55590;BME280;41452;42.780;23.116;2022-09-09T06:00:26;94582.91;;;16.09;90.98
55590;BME280;41452;42.780;23.116;2022-09-09T06:02:52;94537.25;;;15.91;89.94
55590;BME280;41452;42.780;23.116;2022-09-09T06:05:18;94587.78;;;16.43;89.16
55590;BME280;41452;42.780;23.116;2022-09-09T06:07:44;94581.97;;;16.46;89.37
55590;BME280;41452;42.780;23.116;2022-09-09T06:10:10;94595.53;;;16.60;89.78
55590;BME280;41452;42.780;23.116;2022-09-09T06:12:36;94572.97;;;16.52;91.24
55590;BME280;41452;42.780;23.116;2022-09-09T06:15:02;94590.00;;;16.66;88.82
55590;BME280;41452;42.780;23.116;2022-09-09T06:17:27;94549.66;;;16.49;86.86
55590;BME280;41452;42.780;23.116;2022-09-09T06:19:53;94597.47;;;16.90;85.52
55590;BME280;41452;42.780;23.116;2022-09-09T06:22:18;94557.63;;;16.69;85.61
55590;BME280;41452;42.780;23.116;2022-09-09T06:24:44;94566.69;;;16.84;85.93
55590;BME280;41452;42.780;23.116;2022-09-09T06:27:09;94602.28;;;17.19;84.71
55590;BME280;41452;42.780;23.116;2022-09-09T06:29:35;94545.47;;;16.99;84.43
55590;BME280;41452;42.780;23.116;2022-09-09T06:32:02;94566.72;;;17.20;84.41
55590;BME280;41452;42.780;23.116;2022-09-09T06:34:28;94588.97;;;17.44;83.62
55590;BME280;41452;42.780;23.116;2022-09-09T06:36:53;94586.31;;;17.49;83.62
55590;BME280;41452;42.780;23.116;2022-09-09T06:39:19;94547.84;;;17.37;86.44
55590;BME280;41452;42.780;23.116;2022-09-09T06:41:44;94586.84;;;17.62;85.24
55590;BME280;41452;42.780;23.116;2022-09-09T06:44:09;94582.09;;;17.54;83.77
55590;BME280;41452;42.780;23.116;2022-09-09T06:46:36;94587.38;;;17.64;84.21
55590;BME280;41452;42.780;23.116;2022-09-09T06:49:02;94564.28;;;17.59;86.63
55590;BME280;41452;42.780;23.116;2022-09-09T06:51:34;94605.44;;;17.88;85.66
55590;BME280;41452;42.780;23.116;2022-09-09T06:54:01;94586.31;;;17.75;84.86
55590;BME280;41452;42.780;23.116;2022-09-09T06:56:29;94611.25;;;17.90;81.62
55590;BME280;41452;42.780;23.116;2022-09-09T06:58:57;94604.59;;;17.97;81.66
55590;BME280;41452;42.780;23.116;2022-09-09T07:01:28;94559.47;;;17.77;83.96
55590;BME280;41452;42.780;23.116;2022-09-09T07:03:56;94591.56;;;18.06;85.56
55590;BME280;41452;42.780;23.116;2022-09-09T07:06:30;94571.63;;;18.03;85.49
55590;BME280;41452;42.780;23.116;2022-09-09T07:09:04;94532.59;;;17.83;81.95
55590;BME280;41452;42.780;23.116;2022-09-09T07:11:32;94571.56;;;18.24;82.33
55590;BME280;41452;42.780;23.116;2022-09-09T07:13:59;94598.88;;;18.40;80.81
55590;BME280;41452;42.780;23.116;2022-09-09T07:16:25;94582.66;;;18.36;84.12
55590;BME280;41452;42.780;23.116;2022-09-09T07:18:53;94547.88;;;18.28;79.88
55590;BME280;41452;42.780;23.116;2022-09-09T07:21:23;94586.25;;;18.66;79.76
55590;BME280;41452;42.780;23.116;2022-09-09T07:23:49;94554.19;;;18.42;79.27
55590;BME280;41452;42.780;23.116;2022-09-09T07:26:20;94552.50;;;18.56;79.83
55590;BME280;41452;42.780;23.116;2022-09-09T07:28:46;94534.47;;;18.53;79.42
55590;BME280;41452;42.780;23.116;2022-09-09T07:31:17;94587.41;;;18.99;78.64
55590;BME280;41452;42.780;23.116;2022-09-09T07:33:44;94597.97;;;19.10;78.32
55590;BME280;41452;42.780;23.116;2022-09-09T07:36:19;94591.25;;;19.17;76.56
55590;BME280;41452;42.780;23.116;2022-09-09T07:38:51;94592.47;;;19.30;76.64
55590;BME280;41452;42.780;23.116;2022-09-09T07:41:25;94601.47;;;19.40;75.22
55590;BME280;41452;42.780;23.116;2022-09-09T07:43:52;94600.59;;;19.49;75.52
55590;BME280;41452;42.780;23.116;2022-09-09T07:46:23;94597.59;;;19.56;77.62
55590;BME280;41452;42.780;23.116;2022-09-09T07:48:53;94570.59;;;19.38;73.72
55590;BME280;41452;42.780;23.116;2022-09-09T07:51:25;94496.91;;;18.99;73.93
55590;BME280;41452;42.780;23.116;2022-09-09T07:53:53;94522.84;;;19.18;74.78
55590;BME280;41452;42.780;23.116;2022-09-09T07:56:19;94586.31;;;19.64;77.05
55590;BME280;41452;42.780;23.116;2022-09-09T07:58:48;94570.28;;;19.69;75.82
55590;BME280;41452;42.780;23.116;2022-09-09T08:01:19;94560.69;;;19.73;74.68
55590;BME280;41452;42.780;23.116;2022-09-09T08:03:46;94576.94;;;20.01;73.91
55590;BME280;41452;42.780;23.116;2022-09-09T08:06:12;94586.78;;;20.25;74.71
55590;BME280;41452;42.780;23.116;2022-09-09T08:08:39;94506.50;;;19.83;71.96
55590;BME280;41452;42.780;23.116;2022-09-09T08:11:12;94556.38;;;20.26;73.11
55590;BME280;41452;42.780;23.116;2022-09-09T08:13:38;94543.00;;;20.31;72.97
55590;BME280;41452;42.780;23.116;2022-09-09T08:16:16;94593.00;;;20.63;71.26
55590;BME280;41452;42.780;23.116;2022-09-09T08:18:42;94589.72;;;20.72;73.07
55590;BME280;41452;42.780;23.116;2022-09-09T08:21:09;94572.59;;;20.73;71.72
55590;BME280;41452;42.780;23.116;2022-09-09T08:23:40;94540.31;;;20.50;71.93
55590;BME280;41452;42.780;23.116;2022-09-09T08:26:16;94542.69;;;20.51;72.64
55590;BME280;41452;42.780;23.116;2022-09-09T08:28:43;94539.75;;;20.53;71.80
55590;BME280;41452;42.780;23.116;2022-09-09T08:31:12;94553.69;;;20.69;71.78
55590;BME280;41452;42.780;23.116;2022-09-09T08:33:39;94581.19;;;20.88;71.65
55590;BME280;41452;42.780;23.116;2022-09-09T08:36:05;94502.75;;;20.46;73.00
55590;BME280;41452;42.780;23.116;2022-09-09T08:38:31;94576.69;;;21.03;73.00
55590;BME280;41452;42.780;23.116;2022-09-09T08:41:07;94572.66;;;21.05;72.11
55590;BME280;41452;42.780;23.116;2022-09-09T08:43:36;94571.91;;;21.19;74.95
55590;BME280;41452;42.780;23.116;2022-09-09T08:48:59;94558.78;;;21.22;72.59
55590;BME280;41452;42.780;23.116;2022-09-09T08:51:27;94569.00;;;21.34;74.17
55590;BME280;41452;42.780;23.116;2022-09-09T08:53:54;94572.97;;;21.37;71.66
55590;BME280;41452;42.780;23.116;2022-09-09T08:56:24;94578.31;;;21.37;71.54
55590;BME280;41452;42.780;23.116;2022-09-09T08:58:52;94568.81;;;21.31;70.08
55590;BME280;41452;42.780;23.116;2022-09-09T09:01:44;94580.84;;;21.47;73.17
55590;BME280;41452;42.780;23.116;2022-09-09T09:04:40;94576.41;;;21.56;70.24
55590;BME280;41452;42.780;23.116;2022-09-09T09:12:47;94493.78;;;21.13;69.05
55590;BME280;41452;42.780;23.116;2022-09-09T09:17:46;94568.63;;;21.74;69.73
55590;BME280;41452;42.780;23.116;2022-09-09T09:20:15;94571.88;;;21.71;69.29
55590;BME280;41452;42.780;23.116;2022-09-09T09:22:48;94546.16;;;21.61;69.25
55590;BME280;41452;42.780;23.116;2022-09-09T09:25:31;94552.28;;;21.75;69.67
55590;BME280;41452;42.780;23.116;2022-09-09T09:27:59;94559.44;;;21.80;69.59
55590;BME280;41452;42.780;23.116;2022-09-09T09:30:29;94551.09;;;21.81;70.31
55590;BME280;41452;42.780;23.116;2022-09-09T09:35:39;94555.78;;;22.03;68.74
55590;BME280;41452;42.780;23.116;2022-09-09T09:38:23;94554.88;;;22.08;69.61
55590;BME280;41452;42.780;23.116;2022-09-09T09:40:53;94555.59;;;22.14;72.49
55590;BME280;41452;42.780;23.116;2022-09-09T09:43:30;94556.09;;;22.16;74.51
55590;BME280;41452;42.780;23.116;2022-09-09T09:45:57;94560.84;;;22.19;75.87
55590;BME280;41452;42.780;23.116;2022-09-09T09:48:24;94567.47;;;22.21;76.71
55590;BME280;41452;42.780;23.116;2022-09-09T09:51:07;94561.81;;;22.23;76.62
55590;BME280;41452;42.780;23.116;2022-09-09T09:53:36;94568.75;;;22.24;77.77
55590;BME280;41452;42.780;23.116;2022-09-09T09:56:12;94523.88;;;21.93;78.09
55590;BME280;41452;42.780;23.116;2022-09-09T10:03:52;94225.50;;;19.75;74.67
55590;BME280;41452;42.780;23.116;2022-09-09T10:06:35;94211.22;;;19.66;73.47
55590;BME280;41452;42.780;23.116;2022-09-09T10:12:17;94570.03;;;22.13;75.15
55590;BME280;41452;42.780;23.116;2022-09-09T10:17:29;94578.84;;;22.13;77.54
55590;BME280;41452;42.780;23.116;2022-09-09T10:20:25;94582.03;;;22.15;78.46
55590;BME280;41452;42.780;23.116;2022-09-09T10:36:58;94553.56;;;21.78;74.57
55590;BME280;41452;42.780;23.116;2022-09-09T10:53:24;94578.03;;;22.68;71.56
55590;BME280;41452;42.780;23.116;2022-09-09T10:56:04;94554.88;;;22.50;74.17
55590;BME280;41452;42.780;23.116;2022-09-09T11:01:25;94582.22;;;22.47;73.48
55590;BME280;41452;42.780;23.116;2022-09-09T11:04:16;94567.50;;;22.35;72.41
55590;BME280;41452;42.780;23.116;2022-09-09T11:06:48;94577.91;;;22.37;75.21
55590;BME280;41452;42.780;23.116;2022-09-09T11:09:21;94573.34;;;22.37;74.20
55590;BME280;41452;42.780;23.116;2022-09-09T11:11:53;94566.38;;;22.36;74.09
55590;BME280;41452;42.780;23.116;2022-09-09T11:14:34;94558.25;;;22.28;72.53
55590;BME280;41452;42.780;23.116;2022-09-09T11:17:36;94552.13;;;22.27;73.70
55590;BME280;41452;42.780;23.116;2022-09-09T11:20:06;94506.69;;;21.99;73.47
55590;BME280;41452;42.780;23.116;2022-09-09T11:22:39;94551.72;;;22.34;74.01
55590;BME280;41452;42.780;23.116;2022-09-09T11:25:41;94535.19;;;22.32;74.79
55590;BME280;41452;42.780;23.116;2022-09-09T11:28:26;94522.78;;;22.36;75.75
55590;BME280;41452;42.780;23.116;2022-09-09T11:37:53;94502.16;;;22.50;77.20
55590;BME280;41452;42.780;23.116;2022-09-09T11:42:22;94498.56;;;22.55;76.02
55590;BME280;41452;42.780;23.116;2022-09-09T11:44:48;94498.78;;;22.58;76.91
55590;BME280;41452;42.780;23.116;2022-09-09T11:47:30;94461.72;;;22.52;80.87
55590;BME280;41452;42.780;23.116;2022-09-09T11:52:44;94486.91;;;22.73;81.12
55590;BME280;41452;42.780;23.116;2022-09-09T11:55:27;94483.50;;;22.82;82.63
55590;BME280;41452;42.780;23.116;2022-09-09T11:58:04;94464.00;;;22.81;82.69
55590;BME280;41452;42.780;23.116;2022-09-09T12:02:58;94467.69;;;22.94;77.91
55590;BME280;41452;42.780;23.116;2022-09-09T12:05:35;94443.06;;;22.83;77.40
55590;BME280;41452;42.780;23.116;2022-09-09T12:08:02;94450.97;;;22.88;80.54
55590;BME280;41452;42.780;23.116;2022-09-09T12:10:40;94458.81;;;23.07;79.32
55590;BME280;41452;42.780;23.116;2022-09-09T12:13:18;94467.69;;;23.16;78.73
55590;BME280;41452;42.780;23.116;2022-09-09T12:15:55;94454.88;;;23.05;78.59
55590;BME280;41452;42.780;23.116;2022-09-09T12:21:07;94469.34;;;23.26;74.61
55590;BME280;41452;42.780;23.116;2022-09-09T12:23:51;94459.75;;;23.34;76.01
55590;BME280;41452;42.780;23.116;2022-09-09T12:31:34;94457.91;;;23.43;74.40
55590;BME280;41452;42.780;23.116;2022-09-09T12:34:17;94444.16;;;23.36;76.78
55590;BME280;41452;42.780;23.116;2022-09-09T12:36:47;94424.44;;;23.32;72.31
55590;BME280;41452;42.780;23.116;2022-09-09T12:39:35;94429.00;;;23.31;73.71
55590;BME280;41452;42.780;23.116;2022-09-09T12:42:03;94439.34;;;23.47;78.47
55590;BME280;41452;42.780;23.116;2022-09-09T12:44:29;94441.06;;;23.51;76.44
55590;BME280;41452;42.780;23.116;2022-09-09T12:46:56;94434.63;;;23.52;73.98
55590;BME280;41452;42.780;23.116;2022-09-09T12:49:34;94430.03;;;23.53;74.05
55590;BME280;41452;42.780;23.116;2022-09-09T12:52:04;94423.09;;;23.52;75.03
55590;BME280;41452;42.780;23.116;2022-09-09T12:54:34;94440.50;;;23.63;73.73
55590;BME280;41452;42.780;23.116;2022-09-09T12:57:00;94437.69;;;23.68;73.32
55590;BME280;41452;42.780;23.116;2022-09-09T12:59:35;94450.13;;;23.73;75.19
55590;BME280;41452;42.780;23.116;2022-09-09T13:02:01;94442.91;;;23.73;80.21
55590;BME280;41452;42.780;23.116;2022-09-09T13:04:26;94402.00;;;23.50;77.79
55590;BME280;41452;42.780;23.116;2022-09-09T13:06:52;94432.47;;;23.72;75.03
55590;BME280;41452;42.780;23.116;2022-09-09T13:09:18;94402.63;;;23.56;75.73
55590;BME280;41452;42.780;23.116;2022-09-09T13:11:50;94426.66;;;23.70;75.16
55590;BME280;41452;42.780;23.116;2022-09-09T13:14:36;94398.66;;;23.53;75.50
55590;BME280;41452;42.780;23.116;2022-09-09T13:17:06;94406.88;;;23.57;73.49
55590;BME280;41452;42.780;23.116;2022-09-09T13:19:36;94421.91;;;23.67;74.95
55590;BME280;41452;42.780;23.116;2022-09-09T13:22:33;94416.69;;;23.62;74.33
55590;BME280;41452;42.780;23.116;2022-09-09T13:25:18;94406.84;;;23.48;71.44
55590;BME280;41452;42.780;23.116;2022-09-09T13:27:59;94405.75;;;23.49;72.21
55590;BME280;41452;42.780;23.116;2022-09-09T13:30:34;94405.16;;;23.52;72.73
55590;BME280;41452;42.780;23.116;2022-09-09T13:35:35;94394.09;;;23.45;72.72
55590;BME280;41452;42.780;23.116;2022-09-09T13:38:14;94375.13;;;23.33;73.56
55590;BME280;41452;42.780;23.116;2022-09-09T13:40:40;94398.16;;;23.43;71.65
55590;BME280;41452;42.780;23.116;2022-09-09T13:43:15;94372.88;;;23.26;72.57
55590;BME280;41452;42.780;23.116;2022-09-09T13:45:54;94405.09;;;23.44;73.13
55590;BME280;41452;42.780;23.116;2022-09-09T13:48:21;94388.06;;;23.40;73.25
55590;BME280;41452;42.780;23.116;2022-09-09T13:51:00;94388.56;;;23.42;72.06
55590;BME280;41452;42.780;23.116;2022-09-09T13:53:26;94393.78;;;23.47;73.53
55590;BME280;41452;42.780;23.116;2022-09-09T13:55:53;94389.19;;;23.47;76.32
55590;BME280;41452;42.780;23.116;2022-09-09T13:58:18;94399.44;;;23.45;72.65
55590;BME280;41452;42.780;23.116;2022-09-09T14:00:44;94390.28;;;23.46;74.88
55590;BME280;41452;42.780;23.116;2022-09-09T14:03:10;94389.97;;;23.48;73.36
55590;BME280;41452;42.780;23.116;2022-09-09T14:05:35;94376.56;;;23.39;71.45
55590;BME280;41452;42.780;23.116;2022-09-09T14:08:03;94384.44;;;23.44;72.17
55590;BME280;41452;42.780;23.116;2022-09-09T14:10:29;94380.19;;;23.43;72.74
55590;BME280;41452;42.780;23.116;2022-09-09T14:12:54;94359.19;;;23.28;71.34
55590;BME280;41452;42.780;23.116;2022-09-09T14:15:19;94371.19;;;23.39;68.68
55590;BME280;41452;42.780;23.116;2022-09-09T14:17:45;94370.41;;;23.39;71.60
55590;BME280;41452;42.780;23.116;2022-09-09T14:20:11;94368.81;;;23.38;72.40
55590;BME280;41452;42.780;23.116;2022-09-09T14:22:37;94343.38;;;23.18;71.36
55590;BME280;41452;42.780;23.116;2022-09-09T14:25:04;94382.84;;;23.43;71.03
55590;BME280;41452;42.780;23.116;2022-09-09T14:27:31;94381.47;;;23.46;74.18
55590;BME280;41452;42.780;23.116;2022-09-09T14:29:57;94349.69;;;23.22;76.83
55590;BME280;41452;42.780;23.116;2022-09-09T14:32:23;94395.44;;;23.34;75.04
55590;BME280;41452;42.780;23.116;2022-09-09T14:34:48;94364.94;;;23.12;71.77
55590;BME280;41452;42.780;23.116;2022-09-09T14:37:15;94384.03;;;23.20;72.93
55590;BME280;41452;42.780;23.116;2022-09-09T14:39:42;94375.06;;;23.15;71.11
55590;BME280;41452;42.780;23.116;2022-09-09T14:42:12;94378.69;;;23.20;71.21
55590;BME280;41452;42.780;23.116;2022-09-09T14:44:38;94380.28;;;23.21;71.90
55590;BME280;41452;42.780;23.116;2022-09-09T14:47:05;94356.91;;;23.12;74.82
55590;BME280;41452;42.780;23.116;2022-09-09T14:49:30;94357.34;;;23.06;74.67
55590;BME280;41452;42.780;23.116;2022-09-09T14:51:56;94385.47;;;23.17;73.57
55590;BME280;41452;42.780;23.116;2022-09-09T14:54:21;94382.13;;;23.11;72.99
55590;BME280;41452;42.780;23.116;2022-09-09T14:56:48;94390.28;;;23.06;71.71
55590;BME280;41452;42.780;23.116;2022-09-09T14:59:14;94388.97;;;23.04;73.13
55590;BME280;41452;42.780;23.116;2022-09-09T15:01:39;94390.41;;;23.01;74.11
55590;BME280;41452;42.780;23.116;2022-09-09T15:04:05;94388.94;;;22.95;73.31
55590;BME280;41452;42.780;23.116;2022-09-09T15:06:33;94393.50;;;22.94;74.06
55590;BME280;41452;42.780;23.116;2022-09-09T15:08:59;94374.78;;;22.72;73.58
55590;BME280;41452;42.780;23.116;2022-09-09T15:11:31;94400.22;;;22.83;73.91